createdAt,value
2023-05-25T00:01:54.339Z,10.10
2023-05-25T00:04:26.991Z,10.80
2023-05-25T00:06:54.934Z,11.80
2023-05-25T00:09:24.745Z,9.30
2023-05-25T00:11:53.044Z,10.00
2023-05-25T00:14:21.356Z,9.70
2023-05-25T00:16:49.375Z,10.20
2023-05-25T00:19:18.651Z,10.60
2023-05-25T00:21:48.353Z,10.60
2023-05-25T00:24:16.051Z,10.50
2023-05-25T00:26:43.728Z,11.30
2023-05-25T00:29:12.787Z,11.40
2023-05-25T00:31:40.574Z,10.80
2023-05-25T00:34:09.073Z,9.50
2023-05-25T00:36:36.889Z,11.50
2023-05-25T00:39:04.641Z,11.70
2023-05-25T00:41:33.505Z,11.40
2023-05-25T00:44:01.229Z,11.00
2023-05-25T00:46:29.784Z,11.10
2023-05-25T00:48:57.654Z,12.40
2023-05-25T00:51:26.836Z,12.40
2023-05-25T00:53:54.583Z,12.10
2023-05-25T00:56:28.483Z,11.80
2023-05-25T00:59:00.899Z,12.20
2023-05-25T01:01:33.719Z,11.60
2023-05-25T01:04:03.385Z,10.90
2023-05-25T01:06:33.379Z,10.80
2023-05-25T01:09:04.328Z,12.90
2023-05-25T01:11:35.109Z,11.30
2023-05-25T01:14:03.462Z,12.10
2023-05-25T01:16:32.118Z,12.30
2023-05-25T01:19:02.927Z,12.70
2023-05-25T01:22:11.179Z,11.80
2023-05-25T01:24:56.203Z,13.10
2023-05-25T01:27:46.990Z,11.30
2023-05-25T01:30:16.966Z,11.40
2023-05-25T01:32:45.692Z,10.90
2023-05-25T01:35:14.895Z,11.20
2023-05-25T01:37:46.859Z,13.40
2023-05-25T01:40:15.741Z,11.90
2023-05-25T01:42:43.539Z,11.50
2023-05-25T01:45:13.418Z,12.50
2023-05-25T01:48:13.649Z,12.90
2023-05-25T01:50:53.682Z,11.70
2023-05-25T01:53:45.832Z,10.20
2023-05-25T01:56:14.430Z,11.50
2023-05-25T01:58:47.311Z,10.90
2023-05-25T02:01:17.253Z,11.70
2023-05-25T02:03:49.063Z,12.00
2023-05-25T02:06:17.008Z,12.00
2023-05-25T02:08:45.831Z,12.50
2023-05-25T02:11:14.794Z,11.90
2023-05-25T02:13:42.664Z,12.50
2023-05-25T02:16:10.493Z,12.30
2023-05-25T02:18:38.284Z,13.30
2023-05-25T02:21:06.050Z,13.40
2023-05-25T02:23:33.750Z,12.40
2023-05-25T02:26:01.429Z,14.50
2023-05-25T02:28:29.237Z,10.90
2023-05-25T02:30:56.941Z,12.30
2023-05-25T02:33:24.713Z,12.40
2023-05-25T02:35:52.393Z,13.50
2023-05-25T02:38:20.185Z,8.80
2023-05-25T02:40:47.906Z,12.80
2023-05-25T02:43:15.716Z,10.70
2023-05-25T02:45:44.968Z,13.30
2023-05-25T02:48:13.528Z,12.40
2023-05-25T02:50:42.186Z,14.30
2023-05-25T02:53:12.506Z,13.10
2023-05-25T02:55:40.557Z,12.20
2023-05-25T02:58:10.442Z,12.60
2023-05-25T03:00:50.771Z,14.20
2023-05-25T03:03:18.992Z,11.40
2023-05-25T03:05:49.136Z,13.40
2023-05-25T03:08:17.350Z,13.30
2023-05-25T03:10:45.518Z,13.60
2023-05-25T03:13:13.384Z,10.70
2023-05-25T03:15:41.109Z,12.10
2023-05-25T03:18:08.920Z,14.10
2023-05-25T03:23:06.421Z,10.90
2023-05-25T03:25:34.392Z,11.50
2023-05-25T03:28:02.357Z,12.50
2023-05-25T03:30:30.687Z,13.30
2023-05-25T03:32:58.866Z,12.10
2023-05-25T03:35:30.829Z,12.30
2023-05-25T03:37:58.653Z,11.60
2023-05-25T03:40:26.423Z,12.40
2023-05-25T03:42:55.392Z,13.70
2023-05-25T03:45:23.167Z,14.00
2023-05-25T03:47:52.028Z,12.10
2023-05-25T03:50:21.445Z,12.00
2023-05-25T03:52:49.630Z,11.80
2023-05-25T03:55:17.803Z,13.30
2023-05-25T03:57:45.932Z,13.00
2023-05-25T04:00:14.606Z,12.30
2023-05-25T04:02:43.814Z,11.40
2023-05-25T04:05:11.641Z,12.50
2023-05-25T04:07:40.756Z,13.10
2023-05-25T04:10:09.207Z,11.60
2023-05-25T04:12:37.710Z,12.00
2023-05-25T04:15:09.201Z,13.00
2023-05-25T04:17:46.796Z,10.10
2023-05-25T04:20:14.585Z,12.80
2023-05-25T04:22:43.960Z,11.30
2023-05-25T04:27:39.344Z,11.50
2023-05-25T04:30:11.180Z,11.00
2023-05-25T04:33:03.054Z,10.30
2023-05-25T04:35:36.802Z,8.90
2023-05-25T04:38:05.048Z,11.50
2023-05-25T04:40:35.489Z,9.40
2023-05-25T04:43:05.128Z,13.90
2023-05-25T04:45:33.428Z,12.80
2023-05-25T04:50:30.924Z,11.80
2023-05-25T04:52:58.685Z,13.30
2023-05-25T04:55:26.535Z,12.20
2023-05-25T04:57:55.343Z,11.70
2023-05-25T05:00:24.046Z,11.50
2023-05-25T05:02:56.609Z,10.90
2023-05-25T05:05:24.813Z,12.30
2023-05-25T05:07:54.004Z,12.70
2023-05-25T05:10:22.083Z,12.10
2023-05-25T05:12:54.251Z,12.10
2023-05-25T05:15:22.200Z,12.50
2023-05-25T05:17:50.918Z,11.20
2023-05-25T05:20:19.037Z,10.60
2023-05-25T05:22:46.961Z,12.20
2023-05-25T05:25:14.798Z,9.70
2023-05-25T05:27:42.508Z,11.60
2023-05-25T05:30:33.086Z,12.10
2023-05-25T05:33:01.865Z,12.10
2023-05-25T05:35:32.942Z,12.70
2023-05-25T05:38:10.969Z,11.40
2023-05-25T05:40:39.116Z,12.20
2023-05-25T05:45:38.965Z,10.50
2023-05-25T05:48:11.283Z,10.80
2023-05-25T05:50:42.044Z,10.60
2023-05-25T05:53:11.356Z,11.60
2023-05-25T05:55:39.369Z,12.20
2023-05-25T05:58:07.060Z,12.70
2023-05-25T06:00:34.815Z,8.80
2023-05-25T06:03:02.620Z,13.40
2023-05-25T06:05:31.255Z,12.50
2023-05-25T06:07:59.294Z,12.50
2023-05-25T06:10:27.005Z,12.00
2023-05-25T06:12:54.932Z,13.60
2023-05-25T06:15:22.744Z,11.30
2023-05-25T06:17:51.397Z,11.30
2023-05-25T06:20:19.278Z,10.60
2023-05-25T06:22:47.252Z,11.20
2023-05-25T06:25:16.527Z,11.50
2023-05-25T06:27:44.805Z,9.10
2023-05-25T06:30:13.014Z,12.70
2023-05-25T06:32:43.249Z,12.10
2023-05-25T06:35:17.374Z,12.30
2023-05-25T06:37:49.772Z,12.30
2023-05-25T06:40:19.170Z,13.10
2023-05-25T06:42:47.048Z,11.70
2023-05-25T06:45:42.156Z,13.00
2023-05-25T06:48:10.064Z,12.00
2023-05-25T06:50:37.873Z,11.80
2023-05-25T06:53:06.158Z,13.00
2023-05-25T06:55:33.825Z,11.50
2023-05-25T06:58:01.492Z,13.50
2023-05-25T07:00:29.280Z,12.50
2023-05-25T07:02:57.060Z,12.70
2023-05-25T07:05:24.992Z,11.40
2023-05-25T07:07:52.811Z,12.80
2023-05-25T07:10:20.612Z,11.40
2023-05-25T07:12:48.307Z,10.70
2023-05-25T07:15:16.397Z,13.60
2023-05-25T07:17:45.186Z,12.60
2023-05-25T07:20:13.337Z,11.30
2023-05-25T07:22:42.239Z,11.60
2023-05-25T07:25:10.159Z,45.30
2023-05-25T07:27:38.013Z,16.20
2023-05-25T07:30:06.617Z,12.70
2023-05-25T07:32:34.477Z,13.40
2023-05-25T07:35:03.442Z,13.50
2023-05-25T07:37:31.238Z,12.30
2023-05-25T07:39:58.915Z,12.00
2023-05-25T07:42:33.757Z,12.50
2023-05-25T07:45:02.234Z,11.20
2023-05-25T07:47:30.139Z,11.00
2023-05-25T07:49:58.148Z,11.30
2023-05-25T07:52:25.866Z,11.70
2023-05-25T07:54:53.850Z,10.10
2023-05-25T07:57:21.774Z,11.40
2023-05-25T07:59:49.558Z,11.90
2023-05-25T08:02:17.296Z,11.40
2023-05-25T08:04:45.274Z,11.10
2023-05-25T08:07:13.740Z,11.70
2023-05-25T08:09:41.494Z,11.20
2023-05-25T08:12:30.757Z,10.90
2023-05-25T08:17:24.823Z,11.60
2023-05-25T08:19:52.652Z,11.70
2023-05-25T08:22:20.390Z,10.40
2023-05-25T08:24:48.104Z,12.10
2023-05-25T08:27:16.612Z,10.60
2023-05-25T08:29:44.298Z,12.70
2023-05-25T08:32:12.148Z,13.00
2023-05-25T08:34:41.963Z,11.10
2023-05-25T08:37:09.654Z,11.70
2023-05-25T08:39:37.372Z,11.30
2023-05-25T08:42:07.076Z,12.80
2023-05-25T08:44:36.861Z,10.90
2023-05-25T08:47:08.251Z,12.40
2023-05-25T08:49:38.861Z,11.60
2023-05-25T08:52:13.577Z,11.00
2023-05-25T08:54:45.212Z,11.60
2023-05-25T08:57:44.624Z,10.50
2023-05-25T09:00:15.681Z,9.10
2023-05-25T09:03:02.399Z,11.30
2023-05-25T09:05:30.767Z,10.40
2023-05-25T09:07:58.995Z,10.40
2023-05-25T09:10:28.031Z,9.10
2023-05-25T09:12:56.297Z,10.50
2023-05-25T09:15:24.105Z,10.50
2023-05-25T09:17:51.882Z,9.50
2023-05-25T09:20:20.290Z,9.80
2023-05-25T09:22:48.222Z,10.30
2023-05-25T09:25:22.732Z,10.50
2023-05-25T09:27:51.731Z,8.90
2023-05-25T09:30:19.554Z,9.30
2023-05-25T09:32:47.348Z,14.40
2023-05-25T09:35:15.861Z,11.70
2023-05-25T09:37:45.200Z,10.10
2023-05-25T09:40:14.797Z,9.20
2023-05-25T09:42:43.137Z,10.10
2023-05-25T09:45:11.149Z,9.70
2023-05-25T09:47:40.611Z,9.30
2023-05-25T09:50:09.217Z,9.30
2023-05-25T09:52:37.056Z,9.60
2023-05-25T09:55:10.399Z,9.20
2023-05-25T09:57:39.048Z,9.40
2023-05-25T10:00:08.612Z,10.60
2023-05-25T10:02:39.388Z,9.20
2023-05-25T10:05:09.358Z,9.80
2023-05-25T10:07:40.413Z,9.40
2023-05-25T10:10:10.277Z,9.20
2023-05-25T10:12:41.052Z,10.00
2023-05-25T10:15:12.639Z,9.50
2023-05-25T10:17:45.951Z,8.80
2023-05-25T10:20:15.701Z,9.30
2023-05-25T10:23:08.244Z,8.30
2023-05-25T10:25:46.832Z,8.80
2023-05-25T10:28:22.007Z,7.80
2023-05-25T10:30:51.022Z,10.50
2023-05-25T10:33:21.048Z,8.80
2023-05-25T10:36:08.567Z,9.30
2023-05-25T10:38:40.192Z,9.30
2023-05-25T10:41:11.200Z,7.40
2023-05-25T10:43:41.038Z,9.30
2023-05-25T10:46:09.571Z,9.10
2023-05-25T10:48:38.637Z,9.60
2023-05-25T10:51:11.812Z,9.40
2023-05-25T10:53:45.914Z,9.50
2023-05-25T10:56:14.576Z,8.70
2023-05-25T10:58:44.293Z,9.50
2023-05-25T11:01:13.935Z,10.10
2023-05-25T11:03:45.330Z,9.30
2023-05-25T11:06:17.836Z,8.90
2023-05-25T11:09:06.592Z,8.80
2023-05-25T11:11:43.255Z,8.00
2023-05-25T11:14:27.756Z,9.40
2023-05-25T11:17:13.120Z,9.00
2023-05-25T11:19:50.777Z,8.70
2023-05-25T11:22:23.001Z,7.80
2023-05-25T11:24:52.436Z,9.20
2023-05-25T11:27:24.373Z,9.80
2023-05-25T11:29:53.744Z,9.00
2023-05-25T11:32:23.011Z,8.90
2023-05-25T11:34:54.023Z,7.90
2023-05-25T12:01:23.565Z,9.40
2023-05-25T12:03:56.944Z,8.60
2023-05-25T12:06:33.270Z,9.50
2023-05-25T12:09:01.025Z,9.30
2023-05-25T12:11:35.831Z,8.30
2023-05-25T12:14:04.385Z,9.00
2023-05-25T12:16:34.145Z,8.30
2023-05-25T12:19:01.363Z,8.50
2023-05-25T12:21:28.275Z,7.80
2023-05-25T12:23:55.279Z,9.60
2023-05-25T12:26:22.100Z,9.00
2023-05-25T12:29:06.544Z,8.90
2023-05-25T12:31:34.993Z,8.90
2023-05-25T12:36:52.554Z,8.30
2023-05-25T12:39:31.117Z,8.30
2023-05-25T12:42:00.032Z,9.40
2023-05-25T12:44:28.175Z,8.20
2023-05-25T12:46:55.565Z,9.00
2023-05-25T12:49:30.750Z,8.70
2023-05-25T12:51:58.840Z,9.10
2023-05-25T12:54:54.348Z,9.00
2023-05-25T12:57:20.834Z,7.80
2023-05-25T12:59:47.574Z,8.00
2023-05-25T13:02:14.460Z,8.30
2023-05-25T13:04:41.440Z,8.50
2023-05-25T13:07:09.329Z,7.50
2023-05-25T13:09:36.434Z,8.80
2023-05-25T13:12:03.995Z,8.70
2023-05-25T13:14:30.486Z,7.10
2023-05-25T13:16:57.364Z,7.90
2023-05-25T13:19:25.302Z,7.00
2023-05-25T13:21:52.461Z,7.50
2023-05-25T13:24:19.151Z,6.50
2023-05-25T13:26:48.175Z,6.20
2023-05-25T13:29:16.713Z,6.00
2023-05-25T13:31:43.379Z,6.20
2023-05-25T13:34:10.095Z,7.00
2023-05-25T13:36:36.549Z,6.90
2023-05-25T13:39:04.607Z,6.90
2023-05-25T13:41:31.754Z,6.90
2023-05-25T13:43:59.877Z,7.30
2023-05-25T13:46:34.149Z,6.80
2023-05-25T13:51:28.226Z,7.30
2023-05-25T13:53:55.013Z,6.00
2023-05-25T13:56:21.734Z,6.40
2023-05-25T13:58:48.367Z,6.10
2023-05-25T14:01:15.063Z,6.80
2023-05-25T14:03:42.163Z,6.70
2023-05-25T14:06:09.010Z,6.60
2023-05-25T14:08:35.467Z,7.00
2023-05-25T14:11:02.417Z,6.40
2023-05-25T14:13:28.963Z,5.80
2023-05-25T14:15:55.646Z,6.30
2023-05-25T14:18:22.206Z,6.20
2023-05-25T14:20:49.114Z,6.60
2023-05-25T14:23:16.656Z,6.70
2023-05-25T14:25:46.354Z,6.50
2023-05-25T14:28:13.138Z,6.20
2023-05-25T14:30:39.729Z,5.80
2023-05-25T14:33:07.052Z,6.40
2023-05-25T14:35:33.777Z,6.50
2023-05-25T14:38:00.239Z,6.10
2023-05-25T14:40:26.747Z,7.00
2023-05-25T14:42:54.831Z,6.50
2023-05-25T14:45:21.231Z,6.40
2023-05-25T14:47:47.968Z,4.90
2023-05-25T14:50:14.482Z,6.80
2023-05-25T14:52:41.339Z,6.50
2023-05-25T14:55:13.114Z,6.80
2023-05-25T15:10:32.168Z,6.90
2023-05-25T15:13:00.054Z,6.70
2023-05-25T15:15:28.024Z,7.00
2023-05-25T15:17:55.936Z,6.90
2023-05-25T15:20:24.005Z,6.20
2023-05-25T15:22:53.963Z,6.70
2023-05-25T15:25:34.935Z,6.80
2023-05-25T15:28:04.111Z,7.20
2023-05-25T15:30:33.252Z,6.80
2023-05-25T15:33:02.086Z,6.70
2023-05-25T15:38:01.506Z,5.80
2023-05-25T15:42:58.018Z,6.30
2023-05-25T15:45:26.436Z,6.20
2023-05-25T15:47:54.420Z,6.40
2023-05-25T15:50:22.254Z,6.20
2023-05-25T15:52:50.301Z,7.40
2023-05-25T15:55:18.307Z,6.70
2023-05-25T15:57:46.240Z,6.50
2023-05-25T16:00:14.548Z,6.90
2023-05-25T16:02:42.297Z,6.10
2023-05-25T16:05:10.125Z,7.40
2023-05-25T16:07:37.965Z,5.50
2023-05-25T16:10:06.356Z,5.80
2023-05-25T16:12:34.125Z,6.80
2023-05-25T16:15:01.909Z,6.20
2023-05-25T16:17:30.150Z,6.80
2023-05-25T16:19:58.067Z,6.90
2023-05-25T16:22:26.244Z,6.90
2023-05-25T16:24:54.280Z,7.20
2023-05-25T16:27:22.058Z,6.40
2023-05-25T16:29:50.026Z,4.90
2023-05-25T16:32:18.534Z,6.00
2023-05-25T16:34:46.901Z,5.70
2023-05-25T16:37:14.847Z,6.50
2023-05-25T16:39:42.810Z,6.70
2023-05-25T16:42:10.830Z,6.00
2023-05-25T16:44:38.852Z,6.00
2023-05-25T16:47:06.735Z,5.90
2023-05-25T16:49:34.957Z,6.10
2023-05-25T16:52:03.044Z,6.00
2023-05-25T16:54:31.211Z,6.90
2023-05-25T16:56:59.359Z,7.40
2023-05-25T16:59:27.247Z,6.60
2023-05-25T17:01:55.881Z,6.90
2023-05-25T17:04:23.742Z,6.70
2023-05-25T17:06:51.791Z,6.40
2023-05-25T17:09:21.186Z,6.00
2023-05-25T17:11:48.982Z,5.70
2023-05-25T17:14:17.120Z,6.80
2023-05-25T17:16:44.957Z,6.90
2023-05-25T17:21:43.567Z,6.50
2023-05-25T17:24:11.358Z,6.00
2023-05-25T17:26:39.222Z,6.10
2023-05-25T17:29:07.545Z,7.80
2023-05-25T17:31:35.507Z,5.90
2023-05-25T17:34:03.969Z,6.50
2023-05-25T17:36:32.388Z,6.50
2023-05-25T17:39:00.620Z,6.60
2023-05-25T17:41:29.530Z,6.50
2023-05-25T17:43:57.958Z,6.30
2023-05-25T17:46:26.337Z,6.70
2023-05-25T17:48:54.813Z,6.70
2023-05-25T17:51:22.965Z,6.50
2023-05-25T17:53:51.439Z,6.40
2023-05-25T17:56:19.871Z,6.10
2023-05-25T17:58:48.485Z,6.50
2023-05-25T18:01:17.162Z,7.30
2023-05-25T18:03:45.801Z,6.20
2023-05-25T18:06:15.146Z,7.50
2023-05-25T18:08:44.272Z,6.20
2023-05-25T18:11:12.392Z,6.80
2023-05-25T18:13:40.686Z,6.90
2023-05-25T18:18:37.104Z,6.00
2023-05-25T18:21:05.803Z,6.70
2023-05-25T18:23:34.332Z,8.00
2023-05-25T18:26:04.394Z,7.40
2023-05-25T18:28:32.589Z,7.60
2023-05-25T18:31:00.742Z,8.90
2023-05-25T18:35:58.105Z,7.90
2023-05-25T18:38:26.054Z,9.50
2023-05-25T18:40:54.064Z,8.80
2023-05-25T18:43:22.441Z,9.30
2023-05-25T18:45:50.672Z,9.30
2023-05-25T18:48:19.869Z,8.60
2023-05-25T18:50:48.286Z,9.50
2023-05-25T18:53:17.097Z,10.40
2023-05-25T18:55:45.998Z,8.50
2023-05-25T18:58:14.456Z,9.10
2023-05-25T19:00:42.224Z,8.40
2023-05-25T19:03:11.011Z,8.20
2023-05-25T19:05:39.300Z,8.40
2023-05-25T19:08:08.330Z,8.60
2023-05-25T19:10:36.482Z,8.20
2023-05-25T19:13:06.724Z,10.60
2023-05-25T19:15:35.002Z,8.60
2023-05-25T19:18:04.630Z,9.10
2023-05-25T19:20:33.963Z,9.20
2023-05-25T19:23:04.354Z,8.90
2023-05-25T19:25:32.613Z,8.90
2023-05-25T19:28:02.876Z,9.00
2023-05-25T19:30:32.249Z,9.00
2023-05-25T19:33:00.496Z,8.40
2023-05-25T19:35:28.770Z,9.00
2023-05-25T19:37:56.536Z,8.90
2023-05-25T19:40:24.824Z,9.60
2023-05-25T19:42:53.078Z,8.30
2023-05-25T19:45:21.080Z,8.80
2023-05-25T19:47:50.019Z,7.90
2023-05-25T19:50:19.195Z,8.50
2023-05-25T19:52:47.847Z,9.10
2023-05-25T19:55:15.974Z,8.40
2023-05-25T19:57:46.315Z,9.30
2023-05-25T20:00:25.537Z,9.10
2023-05-25T20:02:55.891Z,9.30
2023-05-25T20:05:24.582Z,8.80
2023-05-25T20:07:52.797Z,9.10
2023-05-25T20:10:20.779Z,9.30
2023-05-25T20:12:49.034Z,9.50
2023-05-25T20:15:18.429Z,8.80
2023-05-25T20:17:46.466Z,10.00
2023-05-25T20:22:43.926Z,8.60
2023-05-25T20:25:12.273Z,9.70
2023-05-25T20:27:40.107Z,10.20
2023-05-25T20:30:08.827Z,10.00
2023-05-25T20:32:38.479Z,9.50
2023-05-25T20:35:06.600Z,9.50
2023-05-25T20:40:06.631Z,9.50
2023-05-25T20:42:34.508Z,9.80
2023-05-25T20:45:02.390Z,10.10
2023-05-25T20:47:30.662Z,9.90
2023-05-25T20:49:59.229Z,9.90
2023-05-25T20:52:26.984Z,9.70
2023-05-25T20:54:54.975Z,9.70
2023-05-25T20:57:22.866Z,9.60
2023-05-25T20:59:51.739Z,10.30
2023-05-25T21:04:48.115Z,8.70
2023-05-25T21:07:15.960Z,9.70
2023-05-25T21:09:43.714Z,10.30
2023-05-25T21:12:11.559Z,10.00
2023-05-25T21:14:39.377Z,10.50
2023-05-25T21:17:07.177Z,9.70
2023-05-25T21:19:34.966Z,9.20
2023-05-25T21:22:02.939Z,9.60
2023-05-25T21:24:30.860Z,9.90
2023-05-25T21:26:58.706Z,9.20
2023-05-25T21:29:26.414Z,8.80
2023-05-25T21:31:54.237Z,9.10
2023-05-25T21:34:22.288Z,8.80
2023-05-25T21:36:50.177Z,10.60
2023-05-25T21:39:18.144Z,10.60
2023-05-25T21:41:45.900Z,9.80
2023-05-25T21:44:13.708Z,9.50
2023-05-25T21:46:41.486Z,9.20
2023-05-25T21:49:09.264Z,9.90
2023-05-25T21:51:37.376Z,10.20
2023-05-25T21:54:05.405Z,9.40
2023-05-25T21:56:33.960Z,9.20
2023-05-25T21:59:01.674Z,11.00
2023-05-25T22:01:29.545Z,9.40
2023-05-25T22:03:57.482Z,8.60
2023-05-25T22:06:25.341Z,9.40
2023-05-25T22:08:53.108Z,9.90
2023-05-25T22:11:22.181Z,9.10
2023-05-25T22:13:50.371Z,8.00
2023-05-25T22:16:18.215Z,9.40
2023-05-25T22:18:46.022Z,8.60
2023-05-25T22:21:14.815Z,8.40
2023-05-25T22:23:42.567Z,9.00
2023-05-25T22:26:10.379Z,9.70
2023-05-25T22:28:38.179Z,8.30
2023-05-25T22:31:06.036Z,9.90
2023-05-25T22:33:33.856Z,8.80
2023-05-25T22:36:01.714Z,8.40
2023-05-25T22:38:29.532Z,9.40
2023-05-25T22:40:57.320Z,8.90
2023-05-25T22:43:26.997Z,8.70
2023-05-25T22:45:54.762Z,6.90
2023-05-25T22:48:22.472Z,7.50
2023-05-25T22:50:50.292Z,8.10
2023-05-25T22:53:18.129Z,7.80
2023-05-25T22:55:47.554Z,9.00
2023-05-25T23:00:44.370Z,8.10
2023-05-25T23:03:12.293Z,9.40
2023-05-25T23:05:40.234Z,9.10
2023-05-25T23:13:06.288Z,6.50
2023-05-25T23:15:40.069Z,8.50
2023-05-25T23:18:08.288Z,8.80
2023-05-25T23:20:36.219Z,10.40
2023-05-25T23:23:04.167Z,9.90
2023-05-25T23:25:32.131Z,9.60
2023-05-25T23:27:59.912Z,9.10
2023-05-25T23:30:27.694Z,9.30
2023-05-25T23:32:55.575Z,10.20
2023-05-25T23:35:23.635Z,10.20
2023-05-25T23:37:52.179Z,10.00
2023-05-25T23:40:19.988Z,9.80
2023-05-25T23:42:48.933Z,9.30
2023-05-25T23:45:16.851Z,10.30
2023-05-25T23:47:44.885Z,9.30
2023-05-25T23:50:12.721Z,9.10
2023-05-25T23:52:41.543Z,9.20
2023-05-25T23:55:10.941Z,9.80
